sensor_id;sensor_type;location;lat;lon;timestamp;P1;durP1;ratioP1;P2;durP2;ratioP2
39362;SDS011;25088;43.238;23.110;2024-01-15T00:02:14;0.50;;;0.50;;
39362;SDS011;25088;43.238;23.110;2024-01-15T00:04:40;0.40;;;0.40;;
39362;SDS011;25088;43.238;23.110;2024-01-15T00:07:06;0.40;;;0.40;;
39362;SDS011;25088;43.238;23.110;2024-01-15T00:09:32;0.40;;;0.40;;
39362;SDS011;25088;43.238;23.110;2024-01-15T00:11:58;0.30;;;0.30;;
39362;SDS011;25088;43.238;23.110;2024-01-15T00:14:24;0.30;;;0.30;;
39362;SDS011;25088;43.238;23.110;2024-01-15T00:16:49;0.30;;;0.30;;
39362;SDS011;25088;43.238;23.110;2024-01-15T00:19:16;0.30;;;0.30;;
39362;SDS011;25088;43.238;23.110;2024-01-15T00:21:42;0.30;;;0.30;;
39362;SDS011;25088;43.238;23.110;2024-01-15T00:24:08;0.30;;;0.30;;
39362;SDS011;25088;43.238;23.110;2024-01-15T00:26:34;0.30;;;0.30;;
39362;SDS011;25088;43.238;23.110;2024-01-15T00:28:59;0.30;;;0.30;;
39362;SDS011;25088;43.238;23.110;2024-01-15T00:31:25;0.30;;;0.30;;
39362;SDS011;25088;43.238;23.110;2024-01-15T00:33:50;0.30;;;0.30;;
39362;SDS011;25088;43.238;23.110;2024-01-15T00:36:15;0.30;;;0.30;;
39362;SDS011;25088;43.238;23.110;2024-01-15T00:38:41;0.30;;;0.30;;
39362;SDS011;25088;43.238;23.110;2024-01-15T00:41:07;0.30;;;0.30;;
39362;SDS011;25088;43.238;23.110;2024-01-15T00:43:33;0.30;;;0.30;;
39362;SDS011;25088;43.238;23.110;2024-01-15T00:46:01;0.30;;;0.30;;
39362;SDS011;25088;43.238;23.110;2024-01-15T00:48:27;0.30;;;0.30;;
39362;SDS011;25088;43.238;23.110;2024-01-15T00:50:53;0.30;;;0.30;;
39362;SDS011;25088;43.238;23.110;2024-01-15T00:53:19;0.30;;;0.30;;
39362;SDS011;25088;43.238;23.110;2024-01-15T00:55:47;0.30;;;0.30;;
39362;SDS011;25088;43.238;23.110;2024-01-15T00:58:13;0.30;;;0.30;;
39362;SDS011;25088;43.238;23.110;2024-01-15T01:00:38;0.30;;;0.30;;
39362;SDS011;25088;43.238;23.110;2024-01-15T01:03:04;0.22;;;0.22;;
39362;SDS011;25088;43.238;23.110;2024-01-15T01:05:29;0.30;;;0.30;;
39362;SDS011;25088;43.238;23.110;2024-01-15T01:07:55;0.30;;;0.30;;
39362;SDS011;25088;43.238;23.110;2024-01-15T01:10:20;0.30;;;0.30;;
39362;SDS011;25088;43.238;23.110;2024-01-15T01:12:46;0.30;;;0.30;;
39362;SDS011;25088;43.238;23.110;2024-01-15T01:15:11;0.30;;;0.30;;
39362;SDS011;25088;43.238;23.110;2024-01-15T01:17:37;0.30;;;0.30;;
39362;SDS011;25088;43.238;23.110;2024-01-15T01:20:02;0.30;;;0.30;;
39362;SDS011;25088;43.238;23.110;2024-01-15T01:22:29;0.30;;;0.30;;
39362;SDS011;25088;43.238;23.110;2024-01-15T01:24:55;0.30;;;0.30;;
39362;SDS011;25088;43.238;23.110;2024-01-15T01:27:21;0.20;;;0.20;;
39362;SDS011;25088;43.238;23.110;2024-01-15T01:29:47;0.30;;;0.30;;
39362;SDS011;25088;43.238;23.110;2024-01-15T01:32:12;0.28;;;0.28;;
39362;SDS011;25088;43.238;23.110;2024-01-15T01:34:41;0.20;;;0.20;;
39362;SDS011;25088;43.238;23.110;2024-01-15T01:37:12;0.20;;;0.20;;
39362;SDS011;25088;43.238;23.110;2024-01-15T01:39:41;0.30;;;0.30;;
39362;SDS011;25088;43.238;23.110;2024-01-15T01:42:08;0.30;;;0.30;;
39362;SDS011;25088;43.238;23.110;2024-01-15T01:44:33;0.30;;;0.30;;
39362;SDS011;25088;43.238;23.110;2024-01-15T01:46:59;0.30;;;0.30;;
39362;SDS011;25088;43.238;23.110;2024-01-15T01:49:26;0.30;;;0.30;;
39362;SDS011;25088;43.238;23.110;2024-01-15T01:51:53;0.30;;;0.30;;
39362;SDS011;25088;43.238;23.110;2024-01-15T01:54:21;0.20;;;0.20;;
39362;SDS011;25088;43.238;23.110;2024-01-15T01:56:47;0.30;;;0.30;;
39362;SDS011;25088;43.238;23.110;2024-01-15T01:59:14;0.30;;;0.30;;
39362;SDS011;25088;43.238;23.110;2024-01-15T02:01:39;0.30;;;0.30;;
39362;SDS011;25088;43.238;23.110;2024-01-15T02:04:06;0.20;;;0.20;;
39362;SDS011;25088;43.238;23.110;2024-01-15T02:06:31;0.20;;;0.20;;
39362;SDS011;25088;43.238;23.110;2024-01-15T02:08:57;0.20;;;0.20;;
39362;SDS011;25088;43.238;23.110;2024-01-15T02:11:22;0.20;;;0.20;;
39362;SDS011;25088;43.238;23.110;2024-01-15T02:13:48;0.30;;;0.30;;
39362;SDS011;25088;43.238;23.110;2024-01-15T02:16:14;0.30;;;0.30;;
39362;SDS011;25088;43.238;23.110;2024-01-15T02:18:40;0.20;;;0.20;;
39362;SDS011;25088;43.238;23.110;2024-01-15T02:21:06;0.20;;;0.20;;
39362;SDS011;25088;43.238;23.110;2024-01-15T02:23:32;0.30;;;0.30;;
39362;SDS011;25088;43.238;23.110;2024-01-15T02:25:57;0.30;;;0.30;;
39362;SDS011;25088;43.238;23.110;2024-01-15T02:28:23;0.30;;;0.30;;
39362;SDS011;25088;43.238;23.110;2024-01-15T02:30:49;0.30;;;0.30;;
39362;SDS011;25088;43.238;23.110;2024-01-15T02:33:14;0.20;;;0.20;;
39362;SDS011;25088;43.238;23.110;2024-01-15T02:35:39;0.20;;;0.20;;
39362;SDS011;25088;43.238;23.110;2024-01-15T02:38:05;0.20;;;0.20;;
39362;SDS011;25088;43.238;23.110;2024-01-15T02:40:31;0.20;;;0.20;;
39362;SDS011;25088;43.238;23.110;2024-01-15T02:42:57;0.20;;;0.20;;
39362;SDS011;25088;43.238;23.110;2024-01-15T02:45:23;0.20;;;0.20;;
39362;SDS011;25088;43.238;23.110;2024-01-15T02:47:49;0.30;;;0.30;;
39362;SDS011;25088;43.238;23.110;2024-01-15T02:50:14;0.28;;;0.28;;
39362;SDS011;25088;43.238;23.110;2024-01-15T02:52:41;0.22;;;0.22;;
39362;SDS011;25088;43.238;23.110;2024-01-15T02:55:07;0.20;;;0.20;;
39362;SDS011;25088;43.238;23.110;2024-01-15T02:57:33;0.25;;;0.25;;
39362;SDS011;25088;43.238;23.110;2024-01-15T02:59:58;0.20;;;0.20;;
39362;SDS011;25088;43.238;23.110;2024-01-15T03:02:24;0.30;;;0.30;;
39362;SDS011;25088;43.238;23.110;2024-01-15T03:04:50;0.30;;;0.30;;
39362;SDS011;25088;43.238;23.110;2024-01-15T03:07:15;0.30;;;0.30;;
39362;SDS011;25088;43.238;23.110;2024-01-15T03:09:41;0.30;;;0.30;;
39362;SDS011;25088;43.238;23.110;2024-01-15T03:12:07;0.30;;;0.30;;
39362;SDS011;25088;43.238;23.110;2024-01-15T03:14:32;0.30;;;0.30;;
39362;SDS011;25088;43.238;23.110;2024-01-15T03:16:58;0.30;;;0.30;;
39362;SDS011;25088;43.238;23.110;2024-01-15T03:19:23;0.30;;;0.30;;
39362;SDS011;25088;43.238;23.110;2024-01-15T03:21:48;0.30;;;0.30;;
39362;SDS011;25088;43.238;23.110;2024-01-15T03:24:14;0.30;;;0.30;;
39362;SDS011;25088;43.238;23.110;2024-01-15T03:26:39;0.30;;;0.30;;
39362;SDS011;25088;43.238;23.110;2024-01-15T03:29:05;0.30;;;0.30;;
39362;SDS011;25088;43.238;23.110;2024-01-15T03:31:31;0.30;;;0.30;;
39362;SDS011;25088;43.238;23.110;2024-01-15T03:33:56;0.30;;;0.30;;
39362;SDS011;25088;43.238;23.110;2024-01-15T03:36:22;0.40;;;0.40;;
39362;SDS011;25088;43.238;23.110;2024-01-15T03:38:48;0.30;;;0.30;;
39362;SDS011;25088;43.238;23.110;2024-01-15T03:41:13;0.38;;;0.38;;
39362;SDS011;25088;43.238;23.110;2024-01-15T03:43:39;0.38;;;0.38;;
39362;SDS011;25088;43.238;23.110;2024-01-15T03:46:05;0.30;;;0.30;;
39362;SDS011;25088;43.238;23.110;2024-01-15T03:48:30;0.40;;;0.40;;
39362;SDS011;25088;43.238;23.110;2024-01-15T03:50:56;0.30;;;0.30;;
39362;SDS011;25088;43.238;23.110;2024-01-15T03:53:21;0.30;;;0.30;;
39362;SDS011;25088;43.238;23.110;2024-01-15T03:55:47;0.30;;;0.30;;
39362;SDS011;25088;43.238;23.110;2024-01-15T03:58:12;0.40;;;0.40;;
39362;SDS011;25088;43.238;23.110;2024-01-15T04:00:40;0.35;;;0.35;;
39362;SDS011;25088;43.238;23.110;2024-01-15T04:03:06;0.30;;;0.30;;
39362;SDS011;25088;43.238;23.110;2024-01-15T04:05:37;0.30;;;0.30;;
39362;SDS011;25088;43.238;23.110;2024-01-15T04:08:03;0.40;;;0.40;;
39362;SDS011;25088;43.238;23.110;2024-01-15T04:10:29;0.40;;;0.40;;
39362;SDS011;25088;43.238;23.110;2024-01-15T04:12:54;0.40;;;0.40;;
39362;SDS011;25088;43.238;23.110;2024-01-15T04:15:20;0.40;;;0.40;;
39362;SDS011;25088;43.238;23.110;2024-01-15T04:17:45;0.30;;;0.30;;
39362;SDS011;25088;43.238;23.110;2024-01-15T04:20:10;0.30;;;0.30;;
39362;SDS011;25088;43.238;23.110;2024-01-15T04:22:36;0.40;;;0.40;;
39362;SDS011;25088;43.238;23.110;2024-01-15T04:25:02;0.30;;;0.30;;
39362;SDS011;25088;43.238;23.110;2024-01-15T04:27:28;0.40;;;0.40;;
39362;SDS011;25088;43.238;23.110;2024-01-15T04:29:54;0.40;;;0.40;;
39362;SDS011;25088;43.238;23.110;2024-01-15T04:32:19;0.40;;;0.40;;
39362;SDS011;25088;43.238;23.110;2024-01-15T04:34:44;0.40;;;0.40;;
39362;SDS011;25088;43.238;23.110;2024-01-15T04:37:10;0.40;;;0.40;;
39362;SDS011;25088;43.238;23.110;2024-01-15T04:39:35;0.40;;;0.40;;
39362;SDS011;25088;43.238;23.110;2024-01-15T04:42:01;0.40;;;0.40;;
39362;SDS011;25088;43.238;23.110;2024-01-15T04:44:27;0.40;;;0.40;;
39362;SDS011;25088;43.238;23.110;2024-01-15T04:46:52;0.40;;;0.40;;
39362;SDS011;25088;43.238;23.110;2024-01-15T04:49:18;0.40;;;0.40;;
39362;SDS011;25088;43.238;23.110;2024-01-15T04:51:43;0.40;;;0.40;;
39362;SDS011;25088;43.238;23.110;2024-01-15T04:54:08;0.40;;;0.40;;
39362;SDS011;25088;43.238;23.110;2024-01-15T04:56:34;0.50;;;0.50;;
39362;SDS011;25088;43.238;23.110;2024-01-15T04:58:59;0.40;;;0.40;;
39362;SDS011;25088;43.238;23.110;2024-01-15T05:01:25;0.40;;;0.40;;
39362;SDS011;25088;43.238;23.110;2024-01-15T05:03:50;0.40;;;0.40;;
39362;SDS011;25088;43.238;23.110;2024-01-15T05:06:15;0.40;;;0.40;;
39362;SDS011;25088;43.238;23.110;2024-01-15T05:08:41;0.40;;;0.40;;
39362;SDS011;25088;43.238;23.110;2024-01-15T05:11:06;0.45;;;0.45;;
39362;SDS011;25088;43.238;23.110;2024-01-15T05:13:32;0.47;;;0.47;;
39362;SDS011;25088;43.238;23.110;2024-01-15T05:15:57;0.50;;;0.50;;
39362;SDS011;25088;43.238;23.110;2024-01-15T05:18:23;0.40;;;0.40;;
39362;SDS011;25088;43.238;23.110;2024-01-15T05:20:48;0.40;;;0.40;;
39362;SDS011;25088;43.238;23.110;2024-01-15T05:23:14;0.40;;;0.40;;
39362;SDS011;25088;43.238;23.110;2024-01-15T05:25:39;0.40;;;0.40;;
39362;SDS011;25088;43.238;23.110;2024-01-15T05:28:05;0.50;;;0.50;;
39362;SDS011;25088;43.238;23.110;2024-01-15T05:30:31;0.40;;;0.40;;
39362;SDS011;25088;43.238;23.110;2024-01-15T05:32:56;0.40;;;0.40;;
39362;SDS011;25088;43.238;23.110;2024-01-15T05:35:22;0.30;;;0.30;;
39362;SDS011;25088;43.238;23.110;2024-01-15T05:37:48;0.30;;;0.30;;
39362;SDS011;25088;43.238;23.110;2024-01-15T05:40:13;0.20;;;0.20;;
39362;SDS011;25088;43.238;23.110;2024-01-15T05:42:39;0.20;;;0.20;;
39362;SDS011;25088;43.238;23.110;2024-01-15T05:45:06;0.20;;;0.20;;
39362;SDS011;25088;43.238;23.110;2024-01-15T05:47:32;0.20;;;0.20;;
39362;SDS011;25088;43.238;23.110;2024-01-15T05:49:58;0.20;;;0.20;;
39362;SDS011;25088;43.238;23.110;2024-01-15T05:52:24;0.20;;;0.20;;
39362;SDS011;25088;43.238;23.110;2024-01-15T05:54:49;0.20;;;0.20;;
39362;SDS011;25088;43.238;23.110;2024-01-15T05:57:15;0.20;;;0.20;;
39362;SDS011;25088;43.238;23.110;2024-01-15T05:59:41;0.20;;;0.20;;
39362;SDS011;25088;43.238;23.110;2024-01-15T06:02:08;0.20;;;0.20;;
39362;SDS011;25088;43.238;23.110;2024-01-15T06:04:33;0.20;;;0.20;;
39362;SDS011;25088;43.238;23.110;2024-01-15T06:06:58;0.20;;;0.20;;
39362;SDS011;25088;43.238;23.110;2024-01-15T06:09:24;0.20;;;0.20;;
39362;SDS011;25088;43.238;23.110;2024-01-15T06:11:50;0.20;;;0.20;;
39362;SDS011;25088;43.238;23.110;2024-01-15T06:14:15;0.20;;;0.20;;
39362;SDS011;25088;43.238;23.110;2024-01-15T06:16:40;0.20;;;0.20;;
39362;SDS011;25088;43.238;23.110;2024-01-15T06:19:06;0.20;;;0.20;;
39362;SDS011;25088;43.238;23.110;2024-01-15T06:21:31;0.20;;;0.20;;
39362;SDS011;25088;43.238;23.110;2024-01-15T06:23:57;0.20;;;0.20;;
39362;SDS011;25088;43.238;23.110;2024-01-15T06:26:22;0.20;;;0.20;;
39362;SDS011;25088;43.238;23.110;2024-01-15T06:28:48;0.20;;;0.20;;
39362;SDS011;25088;43.238;23.110;2024-01-15T06:31:14;0.20;;;0.20;;
39362;SDS011;25088;43.238;23.110;2024-01-15T06:33:39;0.20;;;0.20;;
39362;SDS011;25088;43.238;23.110;2024-01-15T06:36:05;0.20;;;0.20;;
39362;SDS011;25088;43.238;23.110;2024-01-15T06:38:31;0.20;;;0.20;;
39362;SDS011;25088;43.238;23.110;2024-01-15T06:40:56;0.10;;;0.10;;
39362;SDS011;25088;43.238;23.110;2024-01-15T06:43:22;0.20;;;0.20;;
39362;SDS011;25088;43.238;23.110;2024-01-15T06:45:47;0.20;;;0.20;;
39362;SDS011;25088;43.238;23.110;2024-01-15T06:48:13;0.20;;;0.20;;
39362;SDS011;25088;43.238;23.110;2024-01-15T06:50:41;0.20;;;0.20;;
39362;SDS011;25088;43.238;23.110;2024-01-15T06:53:06;0.20;;;0.20;;
39362;SDS011;25088;43.238;23.110;2024-01-15T06:55:32;0.15;;;0.15;;
39362;SDS011;25088;43.238;23.110;2024-01-15T06:57:57;0.20;;;0.20;;
39362;SDS011;25088;43.238;23.110;2024-01-15T07:00:23;0.20;;;0.20;;
39362;SDS011;25088;43.238;23.110;2024-01-15T07:02:48;0.20;;;0.20;;
39362;SDS011;25088;43.238;23.110;2024-01-15T07:05:14;0.20;;;0.20;;
39362;SDS011;25088;43.238;23.110;2024-01-15T07:07:40;0.20;;;0.20;;
39362;SDS011;25088;43.238;23.110;2024-01-15T07:10:06;0.20;;;0.20;;
39362;SDS011;25088;43.238;23.110;2024-01-15T07:12:31;0.20;;;0.20;;
39362;SDS011;25088;43.238;23.110;2024-01-15T07:14:57;0.20;;;0.20;;
39362;SDS011;25088;43.238;23.110;2024-01-15T07:17:23;0.20;;;0.20;;
39362;SDS011;25088;43.238;23.110;2024-01-15T07:19:48;0.20;;;0.20;;
39362;SDS011;25088;43.238;23.110;2024-01-15T07:22:14;0.20;;;0.20;;
39362;SDS011;25088;43.238;23.110;2024-01-15T07:24:40;0.20;;;0.20;;
39362;SDS011;25088;43.238;23.110;2024-01-15T07:27:05;0.20;;;0.20;;
39362;SDS011;25088;43.238;23.110;2024-01-15T07:29:31;0.20;;;0.20;;
39362;SDS011;25088;43.238;23.110;2024-01-15T07:31:58;0.20;;;0.20;;
39362;SDS011;25088;43.238;23.110;2024-01-15T07:34:23;0.20;;;0.20;;
39362;SDS011;25088;43.238;23.110;2024-01-15T07:36:49;0.20;;;0.20;;
39362;SDS011;25088;43.238;23.110;2024-01-15T07:39:14;0.20;;;0.20;;
39362;SDS011;25088;43.238;23.110;2024-01-15T07:41:40;0.20;;;0.20;;
39362;SDS011;25088;43.238;23.110;2024-01-15T07:44:05;0.20;;;0.20;;
39362;SDS011;25088;43.238;23.110;2024-01-15T07:46:31;0.20;;;0.20;;
39362;SDS011;25088;43.238;23.110;2024-01-15T07:48:57;0.20;;;0.20;;
39362;SDS011;25088;43.238;23.110;2024-01-15T07:51:25;0.20;;;0.20;;
39362;SDS011;25088;43.238;23.110;2024-01-15T07:53:53;0.20;;;0.20;;
39362;SDS011;25088;43.238;23.110;2024-01-15T07:56:19;0.20;;;0.20;;
39362;SDS011;25088;43.238;23.110;2024-01-15T07:58:44;0.20;;;0.20;;
39362;SDS011;25088;43.238;23.110;2024-01-15T08:01:10;0.20;;;0.20;;
39362;SDS011;25088;43.238;23.110;2024-01-15T08:03:35;0.20;;;0.20;;
39362;SDS011;25088;43.238;23.110;2024-01-15T08:06:01;0.10;;;0.10;;
39362;SDS011;25088;43.238;23.110;2024-01-15T08:08:26;0.20;;;0.20;;
39362;SDS011;25088;43.238;23.110;2024-01-15T08:10:52;0.20;;;0.20;;
39362;SDS011;25088;43.238;23.110;2024-01-15T08:13:18;0.20;;;0.20;;
39362;SDS011;25088;43.238;23.110;2024-01-15T08:15:43;0.20;;;0.20;;
39362;SDS011;25088;43.238;23.110;2024-01-15T08:18:09;0.20;;;0.20;;
39362;SDS011;25088;43.238;23.110;2024-01-15T08:20:34;0.10;;;0.10;;
39362;SDS011;25088;43.238;23.110;2024-01-15T08:23:00;0.10;;;0.10;;
39362;SDS011;25088;43.238;23.110;2024-01-15T08:25:25;0.10;;;0.10;;
39362;SDS011;25088;43.238;23.110;2024-01-15T08:27:51;0.10;;;0.10;;
39362;SDS011;25088;43.238;23.110;2024-01-15T08:30:17;0.10;;;0.10;;
39362;SDS011;25088;43.238;23.110;2024-01-15T08:32:44;0.10;;;0.10;;
39362;SDS011;25088;43.238;23.110;2024-01-15T08:35:10;0.10;;;0.10;;
39362;SDS011;25088;43.238;23.110;2024-01-15T08:37:36;0.20;;;0.20;;
39362;SDS011;25088;43.238;23.110;2024-01-15T08:40:02;0.10;;;0.10;;
39362;SDS011;25088;43.238;23.110;2024-01-15T08:42:28;0.13;;;0.13;;
39362;SDS011;25088;43.238;23.110;2024-01-15T08:44:54;0.10;;;0.10;;
39362;SDS011;25088;43.238;23.110;2024-01-15T08:47:19;0.10;;;0.10;;
39362;SDS011;25088;43.238;23.110;2024-01-15T08:49:45;0.10;;;0.10;;
39362;SDS011;25088;43.238;23.110;2024-01-15T08:52:11;0.10;;;0.10;;
39362;SDS011;25088;43.238;23.110;2024-01-15T08:54:37;0.10;;;0.10;;
39362;SDS011;25088;43.238;23.110;2024-01-15T08:57:02;0.10;;;0.10;;
39362;SDS011;25088;43.238;23.110;2024-01-15T08:59:28;0.10;;;0.10;;
39362;SDS011;25088;43.238;23.110;2024-01-15T09:01:53;0.10;;;0.10;;
39362;SDS011;25088;43.238;23.110;2024-01-15T09:04:21;0.10;;;0.10;;
39362;SDS011;25088;43.238;23.110;2024-01-15T09:06:47;0.10;;;0.10;;
39362;SDS011;25088;43.238;23.110;2024-01-15T09:09:13;0.10;;;0.10;;
39362;SDS011;25088;43.238;23.110;2024-01-15T09:11:41;0.10;;;0.10;;
39362;SDS011;25088;43.238;23.110;2024-01-15T09:14:07;0.10;;;0.10;;
39362;SDS011;25088;43.238;23.110;2024-01-15T09:16:34;0.10;;;0.10;;
39362;SDS011;25088;43.238;23.110;2024-01-15T09:18:59;0.10;;;0.10;;
39362;SDS011;25088;43.238;23.110;2024-01-15T09:21:25;0.10;;;0.10;;
39362;SDS011;25088;43.238;23.110;2024-01-15T09:23:51;0.10;;;0.10;;
39362;SDS011;25088;43.238;23.110;2024-01-15T09:26:16;0.10;;;0.10;;
39362;SDS011;25088;43.238;23.110;2024-01-15T09:28:42;0.10;;;0.10;;
39362;SDS011;25088;43.238;23.110;2024-01-15T09:31:08;0.10;;;0.10;;
39362;SDS011;25088;43.238;23.110;2024-01-15T09:33:33;0.10;;;0.10;;
39362;SDS011;25088;43.238;23.110;2024-01-15T09:36:02;0.10;;;0.10;;
39362;SDS011;25088;43.238;23.110;2024-01-15T09:38:31;0.10;;;0.10;;
39362;SDS011;25088;43.238;23.110;2024-01-15T09:40:59;0.10;;;0.10;;
39362;SDS011;25088;43.238;23.110;2024-01-15T09:43:25;0.10;;;0.10;;
39362;SDS011;25088;43.238;23.110;2024-01-15T09:45:51;0.10;;;0.10;;
39362;SDS011;25088;43.238;23.110;2024-01-15T09:48:18;0.10;;;0.10;;
39362;SDS011;25088;43.238;23.110;2024-01-15T09:50:43;0.10;;;0.10;;
39362;SDS011;25088;43.238;23.110;2024-01-15T09:53:09;0.10;;;0.10;;
39362;SDS011;25088;43.238;23.110;2024-01-15T09:55:38;0.10;;;0.10;;
39362;SDS011;25088;43.238;23.110;2024-01-15T09:58:03;0.10;;;0.10;;
39362;SDS011;25088;43.238;23.110;2024-01-15T10:00:29;0.10;;;0.10;;
39362;SDS011;25088;43.238;23.110;2024-01-15T10:02:58;0.10;;;0.10;;
39362;SDS011;25088;43.238;23.110;2024-01-15T10:05:25;0.10;;;0.10;;
39362;SDS011;25088;43.238;23.110;2024-01-15T10:07:52;0.10;;;0.10;;
39362;SDS011;25088;43.238;23.110;2024-01-15T10:10:19;0.10;;;0.10;;
39362;SDS011;25088;43.238;23.110;2024-01-15T10:12:46;0.10;;;0.10;;
39362;SDS011;25088;43.238;23.110;2024-01-15T10:15:12;0.10;;;0.10;;
39362;SDS011;25088;43.238;23.110;2024-01-15T10:17:38;0.00;;;0.00;;
39362;SDS011;25088;43.238;23.110;2024-01-15T10:20:08;0.10;;;0.10;;
39362;SDS011;25088;43.238;23.110;2024-01-15T10:22:35;0.10;;;0.10;;
39362;SDS011;25088;43.238;23.110;2024-01-15T10:25:03;0.10;;;0.10;;
39362;SDS011;25088;43.238;23.110;2024-01-15T10:27:29;0.10;;;0.10;;
39362;SDS011;25088;43.238;23.110;2024-01-15T10:29:55;0.10;;;0.10;;
39362;SDS011;25088;43.238;23.110;2024-01-15T10:32:25;0.10;;;0.10;;
39362;SDS011;25088;43.238;23.110;2024-01-15T10:34:52;0.10;;;0.10;;
39362;SDS011;25088;43.238;23.110;2024-01-15T10:37:18;0.10;;;0.10;;
39362;SDS011;25088;43.238;23.110;2024-01-15T10:39:44;0.10;;;0.10;;
39362;SDS011;25088;43.238;23.110;2024-01-15T10:42:11;0.10;;;0.10;;
39362;SDS011;25088;43.238;23.110;2024-01-15T10:44:37;0.10;;;0.10;;
39362;SDS011;25088;43.238;23.110;2024-01-15T10:47:02;0.10;;;0.10;;
39362;SDS011;25088;43.238;23.110;2024-01-15T10:49:29;0.10;;;0.10;;
39362;SDS011;25088;43.238;23.110;2024-01-15T10:51:55;0.00;;;0.00;;
39362;SDS011;25088;43.238;23.110;2024-01-15T10:54:22;0.00;;;0.00;;
39362;SDS011;25088;43.238;23.110;2024-01-15T10:56:49;0.08;;;0.08;;
39362;SDS011;25088;43.238;23.110;2024-01-15T10:59:16;0.10;;;0.10;;
39362;SDS011;25088;43.238;23.110;2024-01-15T11:01:45;0.10;;;0.10;;
39362;SDS011;25088;43.238;23.110;2024-01-15T11:04:11;0.10;;;0.10;;
39362;SDS011;25088;43.238;23.110;2024-01-15T11:06:42;0.10;;;0.10;;
39362;SDS011;25088;43.238;23.110;2024-01-15T11:09:09;0.10;;;0.10;;
39362;SDS011;25088;43.238;23.110;2024-01-15T11:11:35;0.10;;;0.10;;
39362;SDS011;25088;43.238;23.110;2024-01-15T11:14:05;0.10;;;0.10;;
39362;SDS011;25088;43.238;23.110;2024-01-15T11:19:21;0.10;;;0.10;;
39362;SDS011;25088;43.238;23.110;2024-01-15T11:21:47;0.10;;;0.10;;
39362;SDS011;25088;43.238;23.110;2024-01-15T11:24:32;0.10;;;0.10;;
39362;SDS011;25088;43.238;23.110;2024-01-15T11:27:02;0.10;;;0.10;;
39362;SDS011;25088;43.238;23.110;2024-01-15T11:31:57;0.10;;;0.10;;
39362;SDS011;25088;43.238;23.110;2024-01-15T11:34:49;0.10;;;0.10;;
39362;SDS011;25088;43.238;23.110;2024-01-15T11:37:15;0.10;;;0.10;;
39362;SDS011;25088;43.238;23.110;2024-01-15T11:39:41;0.10;;;0.10;;
39362;SDS011;25088;43.238;23.110;2024-01-15T11:42:10;0.10;;;0.10;;
39362;SDS011;25088;43.238;23.110;2024-01-15T11:44:37;0.10;;;0.10;;
39362;SDS011;25088;43.238;23.110;2024-01-15T11:47:10;0.10;;;0.10;;
39362;SDS011;25088;43.238;23.110;2024-01-15T11:49:58;0.10;;;0.10;;
39362;SDS011;25088;43.238;23.110;2024-01-15T11:52:33;0.10;;;0.10;;
39362;SDS011;25088;43.238;23.110;2024-01-15T11:57:47;0.10;;;0.10;;
39362;SDS011;25088;43.238;23.110;2024-01-15T12:00:15;0.10;;;0.10;;
39362;SDS011;25088;43.238;23.110;2024-01-15T12:02:41;0.10;;;0.10;;
39362;SDS011;25088;43.238;23.110;2024-01-15T12:05:08;0.10;;;0.10;;
39362;SDS011;25088;43.238;23.110;2024-01-15T12:07:34;0.10;;;0.10;;
39362;SDS011;25088;43.238;23.110;2024-01-15T12:10:00;0.10;;;0.10;;
39362;SDS011;25088;43.238;23.110;2024-01-15T12:12:35;0.10;;;0.10;;
39362;SDS011;25088;43.238;23.110;2024-01-15T12:15:23;0.10;;;0.10;;
39362;SDS011;25088;43.238;23.110;2024-01-15T12:17:50;0.10;;;0.10;;
39362;SDS011;25088;43.238;23.110;2024-01-15T12:20:15;0.15;;;0.15;;
39362;SDS011;25088;43.238;23.110;2024-01-15T12:22:43;0.10;;;0.10;;
39362;SDS011;25088;43.238;23.110;2024-01-15T12:25:09;0.10;;;0.10;;
39362;SDS011;25088;43.238;23.110;2024-01-15T12:27:34;0.10;;;0.10;;
39362;SDS011;25088;43.238;23.110;2024-01-15T12:30:00;0.10;;;0.10;;
39362;SDS011;25088;43.238;23.110;2024-01-15T12:32:26;0.10;;;0.10;;
39362;SDS011;25088;43.238;23.110;2024-01-15T12:34:51;0.10;;;0.10;;
39362;SDS011;25088;43.238;23.110;2024-01-15T12:37:20;0.10;;;0.10;;
39362;SDS011;25088;43.238;23.110;2024-01-15T12:39:47;0.10;;;0.10;;
39362;SDS011;25088;43.238;23.110;2024-01-15T12:42:16;0.10;;;0.10;;
39362;SDS011;25088;43.238;23.110;2024-01-15T12:44:42;0.20;;;0.20;;
39362;SDS011;25088;43.238;23.110;2024-01-15T12:47:10;0.10;;;0.10;;
39362;SDS011;25088;43.238;23.110;2024-01-15T12:49:38;0.10;;;0.10;;
39362;SDS011;25088;43.238;23.110;2024-01-15T12:52:07;0.10;;;0.10;;
39362;SDS011;25088;43.238;23.110;2024-01-15T12:54:34;0.10;;;0.10;;
39362;SDS011;25088;43.238;23.110;2024-01-15T12:56:59;0.10;;;0.10;;
39362;SDS011;25088;43.238;23.110;2024-01-15T12:59:25;0.10;;;0.10;;
39362;SDS011;25088;43.238;23.110;2024-01-15T13:01:50;0.10;;;0.10;;
39362;SDS011;25088;43.238;23.110;2024-01-15T13:04:23;0.10;;;0.10;;
39362;SDS011;25088;43.238;23.110;2024-01-15T13:06:50;0.10;;;0.10;;
39362;SDS011;25088;43.238;23.110;2024-01-15T13:09:16;0.10;;;0.10;;
39362;SDS011;25088;43.238;23.110;2024-01-15T13:11:45;0.10;;;0.10;;
39362;SDS011;25088;43.238;23.110;2024-01-15T13:14:11;0.10;;;0.10;;
39362;SDS011;25088;43.238;23.110;2024-01-15T13:16:39;0.10;;;0.10;;
39362;SDS011;25088;43.238;23.110;2024-01-15T13:19:06;0.10;;;0.10;;
39362;SDS011;25088;43.238;23.110;2024-01-15T13:21:36;0.10;;;0.10;;
39362;SDS011;25088;43.238;23.110;2024-01-15T13:24:02;0.17;;;0.17;;
39362;SDS011;25088;43.238;23.110;2024-01-15T13:26:30;0.20;;;0.20;;
39362;SDS011;25088;43.238;23.110;2024-01-15T13:28:57;0.10;;;0.10;;
39362;SDS011;25088;43.238;23.110;2024-01-15T13:31:22;0.10;;;0.10;;
39362;SDS011;25088;43.238;23.110;2024-01-15T13:33:48;0.10;;;0.10;;
39362;SDS011;25088;43.238;23.110;2024-01-15T13:36:13;0.10;;;0.10;;
39362;SDS011;25088;43.238;23.110;2024-01-15T13:38:39;0.10;;;0.10;;
39362;SDS011;25088;43.238;23.110;2024-01-15T13:41:04;0.10;;;0.10;;
39362;SDS011;25088;43.238;23.110;2024-01-15T13:43:33;0.10;;;0.10;;
39362;SDS011;25088;43.238;23.110;2024-01-15T13:45:59;0.10;;;0.10;;
39362;SDS011;25088;43.238;23.110;2024-01-15T13:48:25;0.10;;;0.10;;
39362;SDS011;25088;43.238;23.110;2024-01-15T13:50:51;0.10;;;0.10;;
39362;SDS011;25088;43.238;23.110;2024-01-15T13:53:17;0.10;;;0.10;;
39362;SDS011;25088;43.238;23.110;2024-01-15T13:55:44;0.10;;;0.10;;
39362;SDS011;25088;43.238;23.110;2024-01-15T13:58:09;0.10;;;0.10;;
39362;SDS011;25088;43.238;23.110;2024-01-15T14:00:35;0.10;;;0.10;;
39362;SDS011;25088;43.238;23.110;2024-01-15T14:03:01;0.10;;;0.10;;
39362;SDS011;25088;43.238;23.110;2024-01-15T14:05:26;0.20;;;0.20;;
39362;SDS011;25088;43.238;23.110;2024-01-15T14:07:52;0.10;;;0.10;;
39362;SDS011;25088;43.238;23.110;2024-01-15T14:10:17;0.10;;;0.10;;
39362;SDS011;25088;43.238;23.110;2024-01-15T14:12:43;0.10;;;0.10;;
39362;SDS011;25088;43.238;23.110;2024-01-15T14:15:08;0.10;;;0.10;;
39362;SDS011;25088;43.238;23.110;2024-01-15T14:17:34;0.20;;;0.20;;
39362;SDS011;25088;43.238;23.110;2024-01-15T14:19:59;0.20;;;0.20;;
39362;SDS011;25088;43.238;23.110;2024-01-15T14:22:25;0.20;;;0.20;;
39362;SDS011;25088;43.238;23.110;2024-01-15T14:24:50;0.20;;;0.20;;
39362;SDS011;25088;43.238;23.110;2024-01-15T14:27:16;0.20;;;0.20;;
39362;SDS011;25088;43.238;23.110;2024-01-15T14:29:42;0.20;;;0.20;;
39362;SDS011;25088;43.238;23.110;2024-01-15T14:32:07;0.20;;;0.20;;
39362;SDS011;25088;43.238;23.110;2024-01-15T14:34:33;0.10;;;0.10;;
39362;SDS011;25088;43.238;23.110;2024-01-15T14:36:58;0.20;;;0.20;;